MDT,Max TemperatureF,Mean TemperatureF,Min TemperatureF,Max Dew PointF,MeanDew PointF,Min DewpointF,Max Humidity, Mean Humidity, Min Humidity, Max Sea Level PressureIn, Mean Sea Level PressureIn, Min Sea Level PressureIn, Max VisibilityMiles, Mean VisibilityMiles, Min VisibilityMiles, Max Wind SpeedMPH, Mean Wind SpeedMPH, Max Gust SpeedMPH,PrecipitationIn, CloudCover, Events, WindDirDegrees
2012-10-1,79,58,39,28,22,17,47,27,11,30.02,29.93,29.87,10,10,10,12,3,16,0.00,0,,46
2012-10-2,81,56,32,26,20,15,52,28,10,30.03,29.90,29.78,10,10,10,15,4,33,0.00,0,,325
2012-10-3,82,60,37,24,18,13,41,23,10,29.97,29.85,29.77,10,10,10,22,6,34,0.00,0,,254
2012-10-4,78,58,39,30,24,20,49,26,14,30.04,29.88,29.78,10,10,10,25,10,33,0.00,0,,228
2012-10-5,75,57,39,32,24,18,60,28,12,29.98,29.84,29.76,10,10,10,21,7,32,0.00,0,,242
2012-10-6,75,60,46,27,22,13,39,24,10,29.86,29.74,29.64,10,10,10,21,8,32,0.00,0,,240
2012-10-7,71,54,39,30,12,-5,58,25,6,30.13,29.86,29.72,10,10,10,15,4,22,0.00,0,,298
2012-10-8,73,50,27,24,11,-4,38,22,12,30.12,29.96,29.85,10,10,10,18,4,25,0.00,0,,246
2012-10-9,73,54,34,33,24,16,55,33,18,30.01,29.91,29.83,10,10,10,15,5,24,0.00,0,,227
2012-10-10,75,56,36,30,21,15,50,30,10,30.08,29.92,29.78,10,10,10,13,4,22,0.00,0,,203
2012-10-11,75,54,34,48,27,17,72,44,18,29.99,29.90,29.82,10,10,10,14,3,22,0.01,2,Rain,114
2012-10-12,60,46,34,48,39,26,88,68,32,30.13,29.94,29.70,10,9,4,29,9,38,0.11,4,Rain-Thunderstorm,235
2012-10-13,61,44,28,34,30,26,89,65,34,30.19,30.11,30.02,10,10,10,15,3,22,0.00,2,,270
2012-10-14,69,48,28,36,30,25,89,57,23,30.32,30.20,30.09,10,10,10,12,3,17,0.00,0,,32
2012-10-15,73,50,28,29,25,21,78,45,16,30.22,30.04,29.88,10,10,10,14,2,24,0.00,0,,283
2012-10-16,75,51,27,27,20,13,72,34,10,30.07,29.86,29.72,10,10,10,17,4,25,0.00,0,,235
2012-10-17,73,54,34,32,17,0,49,26,7,29.98,29.79,29.62,10,10,10,15,8,22,0.00,0,,284
2012-10-18,73,50,26,13,7,1,37,22,10,30.18,30.04,29.93,10,10,10,16,4,22,0.00,0,,333
2012-10-19,75,50,24,16,11,5,45,26,10,30.17,30.00,29.84,10,10,10,14,2,20,0.00,0,,199
2012-10-20,73,50,28,31,19,6,43,31,15,30.04,29.84,29.67,10,10,10,17,5,25,0.00,0,,215
2012-10-21,70,52,34,38,27,23,65,42,18,30.01,29.79,29.66,10,10,10,21,8,29,0.00,0,,212
2012-10-22,69,50,33,38,28,21,64,45,22,30.09,29.84,29.78,10,10,9,22,8,32,0.00,0,,230
2012-10-23,71,52,33,37,26,19,70,41,16,29.92,29.78,29.69,10,10,10,22,8,32,0.00,0,,220
2012-10-24,69,56,41,35,23,8,56,31,16,29.83,29.68,29.55,10,10,10,33,15,43,0.00,0,,227
2012-10-25,57,38,19,14,10,6,60,33,13,30.21,30.05,29.88,10,10,10,21,4,28,0.00,0,,257
2012-10-26,51,36,21,11,1,-9,60,28,10,30.38,30.26,30.13,10,10,10,15,4,22,0.00,0,,49
2012-10-27,63,38,15,3,-5,-12,32,21,7,30.37,30.23,30.08,10,10,9,14,1,18,0.00,0,,15
2012-10-28,66,44,21,13,5,-5,35,23,11,30.34,30.17,30.03,10,10,10,12,3,,0.00,0,,343
2012-10-29,72,45,19,12,6,0,44,24,8,30.32,30.18,30.06,10,10,10,15,2,22,0.00,0,,251
2012-10-30,70,47,24,17,9,-1,37,27,13,30.24,30.14,30.02,10,10,10,9,3,,0.00,0,,55
2012-10-31,69,45,21,17,10,5,51,30,11,30.28,30.12,30.00,10,10,10,8,1,,0.00,0,,42